sensor_id;sensor_type;location;lat;lon;timestamp;temperature;humidity
31387;DHT22;18017;50.124;8.688;2022-09-13T00:00:04;17.30;99.90
31387;DHT22;18017;50.124;8.688;2022-09-13T00:02:30;17.30;99.90
31387;DHT22;18017;50.124;8.688;2022-09-13T00:04:55;17.30;99.90
31387;DHT22;18017;50.124;8.688;2022-09-13T00:07:21;17.30;99.90
31387;DHT22;18017;50.124;8.688;2022-09-13T00:09:46;17.20;99.90
31387;DHT22;18017;50.124;8.688;2022-09-13T00:12:12;17.20;99.90
31387;DHT22;18017;50.124;8.688;2022-09-13T00:14:37;17.20;99.90
31387;DHT22;18017;50.124;8.688;2022-09-13T00:17:03;17.20;99.90
31387;DHT22;18017;50.124;8.688;2022-09-13T00:19:28;17.20;99.90
31387;DHT22;18017;50.124;8.688;2022-09-13T00:21:54;17.10;99.90
31387;DHT22;18017;50.124;8.688;2022-09-13T00:24:20;17.20;99.90
31387;DHT22;18017;50.124;8.688;2022-09-13T00:26:45;17.10;99.90
31387;DHT22;18017;50.124;8.688;2022-09-13T00:29:11;17.10;99.90
31387;DHT22;18017;50.124;8.688;2022-09-13T00:31:36;17.00;99.90
31387;DHT22;18017;50.124;8.688;2022-09-13T00:34:02;17.00;99.90
31387;DHT22;18017;50.124;8.688;2022-09-13T00:36:28;17.00;99.90
31387;DHT22;18017;50.124;8.688;2022-09-13T00:38:54;17.00;99.90
31387;DHT22;18017;50.124;8.688;2022-09-13T00:41:20;16.90;99.90
31387;DHT22;18017;50.124;8.688;2022-09-13T00:43:57;16.90;99.90
31387;DHT22;18017;50.124;8.688;2022-09-13T00:46:52;16.80;99.90
31387;DHT22;18017;50.124;8.688;2022-09-13T00:49:47;16.80;99.90
31387;DHT22;18017;50.124;8.688;2022-09-13T00:52:19;16.90;99.90
31387;DHT22;18017;50.124;8.688;2022-09-13T00:54:54;16.80;99.90
31387;DHT22;18017;50.124;8.688;2022-09-13T00:57:21;16.80;99.90
31387;DHT22;18017;50.124;8.688;2022-09-13T01:02:20;16.70;99.90
31387;DHT22;18017;50.124;8.688;2022-09-13T01:04:45;16.60;99.90
31387;DHT22;18017;50.124;8.688;2022-09-13T01:07:13;16.60;99.90
31387;DHT22;18017;50.124;8.688;2022-09-13T01:09:43;16.60;99.90
31387;DHT22;18017;50.124;8.688;2022-09-13T01:14:45;16.60;99.90
31387;DHT22;18017;50.124;8.688;2022-09-13T01:17:12;16.50;99.90
31387;DHT22;18017;50.124;8.688;2022-09-13T01:19:37;16.50;99.90
31387;DHT22;18017;50.124;8.688;2022-09-13T01:27:46;16.40;99.90
31387;DHT22;18017;50.124;8.688;2022-09-13T01:30:20;16.30;99.90
31387;DHT22;18017;50.124;8.688;2022-09-13T01:33:15;16.30;99.90
31387;DHT22;18017;50.124;8.688;2022-09-13T01:43:57;16.20;99.90
31387;DHT22;18017;50.124;8.688;2022-09-13T01:46:36;16.20;99.90
31387;DHT22;18017;50.124;8.688;2022-09-13T01:49:24;16.20;99.90
31387;DHT22;18017;50.124;8.688;2022-09-13T01:51:59;16.20;99.90
31387;DHT22;18017;50.124;8.688;2022-09-13T01:54:38;16.20;99.90
31387;DHT22;18017;50.124;8.688;2022-09-13T01:57:31;16.20;99.90
31387;DHT22;18017;50.124;8.688;2022-09-13T02:00:11;16.20;99.90
31387;DHT22;18017;50.124;8.688;2022-09-13T02:08:17;16.10;99.90
31387;DHT22;18017;50.124;8.688;2022-09-13T02:10:50;16.00;99.90
31387;DHT22;18017;50.124;8.688;2022-09-13T02:13:21;15.90;99.90
31387;DHT22;18017;50.124;8.688;2022-09-13T02:15:54;15.90;99.90
31387;DHT22;18017;50.124;8.688;2022-09-13T02:18:34;15.90;99.90
31387;DHT22;18017;50.124;8.688;2022-09-13T02:21:06;15.90;99.90
31387;DHT22;18017;50.124;8.688;2022-09-13T02:23:47;15.80;99.90
31387;DHT22;18017;50.124;8.688;2022-09-13T02:26:15;15.80;99.90
31387;DHT22;18017;50.124;8.688;2022-09-13T02:28:46;15.80;99.90
31387;DHT22;18017;50.124;8.688;2022-09-13T02:31:15;15.80;99.90
31387;DHT22;18017;50.124;8.688;2022-09-13T02:33:48;15.80;99.90
31387;DHT22;18017;50.124;8.688;2022-09-13T02:36:22;15.80;99.90
31387;DHT22;18017;50.124;8.688;2022-09-13T02:38:58;15.90;99.90
31387;DHT22;18017;50.124;8.688;2022-09-13T02:41:38;15.90;99.90
31387;DHT22;18017;50.124;8.688;2022-09-13T02:44:15;15.90;99.90
31387;DHT22;18017;50.124;8.688;2022-09-13T02:46:57;15.90;99.90
31387;DHT22;18017;50.124;8.688;2022-09-13T02:52:08;15.90;99.90
31387;DHT22;18017;50.124;8.688;2022-09-13T02:54:48;16.00;99.90
31387;DHT22;18017;50.124;8.688;2022-09-13T02:57:37;16.00;99.90
31387;DHT22;18017;50.124;8.688;2022-09-13T03:00:05;16.00;99.90
31387;DHT22;18017;50.124;8.688;2022-09-13T03:02:32;16.10;99.90
31387;DHT22;18017;50.124;8.688;2022-09-13T03:04:59;16.10;99.90
31387;DHT22;18017;50.124;8.688;2022-09-13T03:07:25;16.20;99.90
31387;DHT22;18017;50.124;8.688;2022-09-13T03:09:54;16.20;99.90
31387;DHT22;18017;50.124;8.688;2022-09-13T03:18:09;16.40;99.90
31387;DHT22;18017;50.124;8.688;2022-09-13T03:29:51;16.50;99.90
31387;DHT22;18017;50.124;8.688;2022-09-13T03:32:37;16.50;99.90
31387;DHT22;18017;50.124;8.688;2022-09-13T03:35:38;16.40;99.90
31387;DHT22;18017;50.124;8.688;2022-09-13T03:40:49;16.40;99.90
31387;DHT22;18017;50.124;8.688;2022-09-13T03:44:11;16.30;99.90
31387;DHT22;18017;50.124;8.688;2022-09-13T03:48:48;16.20;99.90
31387;DHT22;18017;50.124;8.688;2022-09-13T03:51:14;16.20;99.90
31387;DHT22;18017;50.124;8.688;2022-09-13T03:53:52;16.20;99.90
31387;DHT22;18017;50.124;8.688;2022-09-13T03:56:21;16.20;99.90
31387;DHT22;18017;50.124;8.688;2022-09-13T03:58:47;16.10;99.90
31387;DHT22;18017;50.124;8.688;2022-09-13T04:01:15;16.10;99.90
31387;DHT22;18017;50.124;8.688;2022-09-13T04:03:42;16.00;99.90
31387;DHT22;18017;50.124;8.688;2022-09-13T04:06:08;16.10;99.90
31387;DHT22;18017;50.124;8.688;2022-09-13T04:08:34;16.10;99.90
31387;DHT22;18017;50.124;8.688;2022-09-13T04:10:59;16.10;99.90
31387;DHT22;18017;50.124;8.688;2022-09-13T04:13:26;16.10;99.90
31387;DHT22;18017;50.124;8.688;2022-09-13T04:15:52;16.00;99.90
31387;DHT22;18017;50.124;8.688;2022-09-13T04:18:17;16.00;99.90
31387;DHT22;18017;50.124;8.688;2022-09-13T04:20:43;16.00;99.90
31387;DHT22;18017;50.124;8.688;2022-09-13T04:23:08;15.90;99.90
31387;DHT22;18017;50.124;8.688;2022-09-13T04:25:37;15.80;99.90
31387;DHT22;18017;50.124;8.688;2022-09-13T04:28:03;15.90;99.90
31387;DHT22;18017;50.124;8.688;2022-09-13T04:30:29;15.80;99.90
31387;DHT22;18017;50.124;8.688;2022-09-13T04:32:55;15.80;99.90
31387;DHT22;18017;50.124;8.688;2022-09-13T04:35:21;15.80;99.90
31387;DHT22;18017;50.124;8.688;2022-09-13T04:37:46;15.80;99.90
31387;DHT22;18017;50.124;8.688;2022-09-13T04:40:12;15.80;99.90
31387;DHT22;18017;50.124;8.688;2022-09-13T04:42:38;15.80;99.90
31387;DHT22;18017;50.124;8.688;2022-09-13T04:45:04;15.80;99.90
31387;DHT22;18017;50.124;8.688;2022-09-13T04:47:31;15.70;99.90
31387;DHT22;18017;50.124;8.688;2022-09-13T04:49:56;15.80;99.90
31387;DHT22;18017;50.124;8.688;2022-09-13T04:52:22;15.80;99.90
31387;DHT22;18017;50.124;8.688;2022-09-13T04:54:48;15.80;99.90
31387;DHT22;18017;50.124;8.688;2022-09-13T04:57:14;15.90;99.90
31387;DHT22;18017;50.124;8.688;2022-09-13T04:59:41;15.90;99.90
31387;DHT22;18017;50.124;8.688;2022-09-13T05:02:06;15.90;99.90
31387;DHT22;18017;50.124;8.688;2022-09-13T05:04:32;15.90;99.90
31387;DHT22;18017;50.124;8.688;2022-09-13T05:06:57;16.00;99.90
31387;DHT22;18017;50.124;8.688;2022-09-13T05:09:23;16.00;99.90
31387;DHT22;18017;50.124;8.688;2022-09-13T05:11:49;16.10;99.90
31387;DHT22;18017;50.124;8.688;2022-09-13T05:14:15;16.10;99.90
31387;DHT22;18017;50.124;8.688;2022-09-13T05:16:40;16.10;99.90
31387;DHT22;18017;50.124;8.688;2022-09-13T05:19:06;16.20;99.90
31387;DHT22;18017;50.124;8.688;2022-09-13T05:21:32;16.20;99.90
31387;DHT22;18017;50.124;8.688;2022-09-13T05:23:58;16.20;99.90
31387;DHT22;18017;50.124;8.688;2022-09-13T05:26:25;16.20;99.90
31387;DHT22;18017;50.124;8.688;2022-09-13T05:28:51;16.20;99.90
31387;DHT22;18017;50.124;8.688;2022-09-13T05:31:30;16.20;99.90
31387;DHT22;18017;50.124;8.688;2022-09-13T05:34:01;16.10;99.90
31387;DHT22;18017;50.124;8.688;2022-09-13T05:36:27;16.20;99.90
31387;DHT22;18017;50.124;8.688;2022-09-13T05:38:53;16.20;99.90
31387;DHT22;18017;50.124;8.688;2022-09-13T05:41:19;16.30;99.90
31387;DHT22;18017;50.124;8.688;2022-09-13T05:43:45;16.30;99.90
31387;DHT22;18017;50.124;8.688;2022-09-13T05:46:15;16.30;99.90
31387;DHT22;18017;50.124;8.688;2022-09-13T05:48:41;16.40;99.90
31387;DHT22;18017;50.124;8.688;2022-09-13T05:53:37;16.40;99.90
31387;DHT22;18017;50.124;8.688;2022-09-13T05:56:08;16.40;99.90
31387;DHT22;18017;50.124;8.688;2022-09-13T05:58:37;16.50;99.90
31387;DHT22;18017;50.124;8.688;2022-09-13T06:01:04;16.50;99.90
31387;DHT22;18017;50.124;8.688;2022-09-13T06:03:29;16.60;99.90
31387;DHT22;18017;50.124;8.688;2022-09-13T06:05:56;16.70;99.90
31387;DHT22;18017;50.124;8.688;2022-09-13T06:08:27;16.80;99.90
31387;DHT22;18017;50.124;8.688;2022-09-13T06:10:58;16.80;99.90
31387;DHT22;18017;50.124;8.688;2022-09-13T06:13:25;16.80;99.90
31387;DHT22;18017;50.124;8.688;2022-09-13T06:15:51;16.70;99.90
31387;DHT22;18017;50.124;8.688;2022-09-13T06:18:17;16.80;99.90
31387;DHT22;18017;50.124;8.688;2022-09-13T06:20:43;16.80;99.90
31387;DHT22;18017;50.124;8.688;2022-09-13T06:23:09;16.80;99.90
31387;DHT22;18017;50.124;8.688;2022-09-13T06:25:34;16.90;99.90
31387;DHT22;18017;50.124;8.688;2022-09-13T06:28:00;17.00;99.90
31387;DHT22;18017;50.124;8.688;2022-09-13T06:30:26;17.00;99.90
31387;DHT22;18017;50.124;8.688;2022-09-13T06:32:51;17.10;99.90
31387;DHT22;18017;50.124;8.688;2022-09-13T06:35:17;17.20;99.90
31387;DHT22;18017;50.124;8.688;2022-09-13T06:37:43;17.30;99.90
31387;DHT22;18017;50.124;8.688;2022-09-13T06:40:09;17.30;99.90
31387;DHT22;18017;50.124;8.688;2022-09-13T06:42:35;17.40;99.90
31387;DHT22;18017;50.124;8.688;2022-09-13T06:45:02;17.60;99.90
31387;DHT22;18017;50.124;8.688;2022-09-13T06:47:28;17.70;99.90
31387;DHT22;18017;50.124;8.688;2022-09-13T06:49:53;17.80;99.90
31387;DHT22;18017;50.124;8.688;2022-09-13T06:52:19;17.80;99.90
31387;DHT22;18017;50.124;8.688;2022-09-13T06:54:44;17.80;99.90
31387;DHT22;18017;50.124;8.688;2022-09-13T06:57:10;17.70;99.90
31387;DHT22;18017;50.124;8.688;2022-09-13T06:59:36;17.70;99.90
31387;DHT22;18017;50.124;8.688;2022-09-13T07:02:01;17.70;99.90
31387;DHT22;18017;50.124;8.688;2022-09-13T07:04:27;17.80;99.90
31387;DHT22;18017;50.124;8.688;2022-09-13T07:06:56;17.90;99.90
31387;DHT22;18017;50.124;8.688;2022-09-13T07:09:22;18.00;99.90
31387;DHT22;18017;50.124;8.688;2022-09-13T07:11:50;18.10;99.90
31387;DHT22;18017;50.124;8.688;2022-09-13T07:14:19;18.10;99.90
31387;DHT22;18017;50.124;8.688;2022-09-13T07:16:45;18.20;99.90
31387;DHT22;18017;50.124;8.688;2022-09-13T07:19:18;18.20;99.90
31387;DHT22;18017;50.124;8.688;2022-09-13T07:21:44;18.20;99.90
31387;DHT22;18017;50.124;8.688;2022-09-13T07:24:10;18.20;99.90
31387;DHT22;18017;50.124;8.688;2022-09-13T07:26:36;18.30;99.90
31387;DHT22;18017;50.124;8.688;2022-09-13T07:29:05;18.30;99.90
31387;DHT22;18017;50.124;8.688;2022-09-13T07:31:33;18.40;99.90
31387;DHT22;18017;50.124;8.688;2022-09-13T07:34:02;18.40;99.90
31387;DHT22;18017;50.124;8.688;2022-09-13T07:36:29;18.40;99.90
31387;DHT22;18017;50.124;8.688;2022-09-13T07:38:55;18.40;99.90
31387;DHT22;18017;50.124;8.688;2022-09-13T07:41:23;18.40;99.90
31387;DHT22;18017;50.124;8.688;2022-09-13T07:43:49;18.40;99.90
31387;DHT22;18017;50.124;8.688;2022-09-13T07:46:18;18.30;99.90
31387;DHT22;18017;50.124;8.688;2022-09-13T07:48:45;18.20;99.90
31387;DHT22;18017;50.124;8.688;2022-09-13T07:51:16;18.10;99.90
31387;DHT22;18017;50.124;8.688;2022-09-13T07:53:44;18.10;99.90
31387;DHT22;18017;50.124;8.688;2022-09-13T07:56:12;18.20;99.90
31387;DHT22;18017;50.124;8.688;2022-09-13T07:58:39;18.20;99.90
31387;DHT22;18017;50.124;8.688;2022-09-13T08:03:33;18.40;99.90
31387;DHT22;18017;50.124;8.688;2022-09-13T08:05:59;18.70;99.90
31387;DHT22;18017;50.124;8.688;2022-09-13T08:08:26;18.80;99.90
31387;DHT22;18017;50.124;8.688;2022-09-13T08:10:52;18.80;99.90
31387;DHT22;18017;50.124;8.688;2022-09-13T08:13:17;18.80;99.90
31387;DHT22;18017;50.124;8.688;2022-09-13T08:15:43;18.90;99.90
31387;DHT22;18017;50.124;8.688;2022-09-13T08:18:08;19.10;99.90
31387;DHT22;18017;50.124;8.688;2022-09-13T08:20:38;19.30;99.90
31387;DHT22;18017;50.124;8.688;2022-09-13T08:23:05;19.60;99.90
31387;DHT22;18017;50.124;8.688;2022-09-13T08:25:33;19.60;99.90
31387;DHT22;18017;50.124;8.688;2022-09-13T08:28:08;19.60;99.90
31387;DHT22;18017;50.124;8.688;2022-09-13T08:30:36;19.50;99.90
31387;DHT22;18017;50.124;8.688;2022-09-13T08:33:05;19.30;99.90
31387;DHT22;18017;50.124;8.688;2022-09-13T08:35:31;19.50;99.90
31387;DHT22;18017;50.124;8.688;2022-09-13T08:37:58;19.60;99.90
31387;DHT22;18017;50.124;8.688;2022-09-13T08:40:26;19.80;99.90
31387;DHT22;18017;50.124;8.688;2022-09-13T08:45:23;20.30;99.90
31387;DHT22;18017;50.124;8.688;2022-09-13T08:47:57;20.50;99.90
31387;DHT22;18017;50.124;8.688;2022-09-13T08:50:34;20.50;99.90
31387;DHT22;18017;50.124;8.688;2022-09-13T08:53:22;20.70;99.90
31387;DHT22;18017;50.124;8.688;2022-09-13T08:58:49;23.70;99.90
31387;DHT22;18017;50.124;8.688;2022-09-13T09:06:33;23.70;99.90
31387;DHT22;18017;50.124;8.688;2022-09-13T09:09:17;23.30;99.90
31387;DHT22;18017;50.124;8.688;2022-09-13T09:11:50;22.80;99.90
31387;DHT22;18017;50.124;8.688;2022-09-13T09:14:38;22.30;99.90
31387;DHT22;18017;50.124;8.688;2022-09-13T09:17:27;21.50;99.90
31387;DHT22;18017;50.124;8.688;2022-09-13T09:22:50;20.40;99.90
31387;DHT22;18017;50.124;8.688;2022-09-13T09:25:17;20.10;99.90
31387;DHT22;18017;50.124;8.688;2022-09-13T09:27:44;19.70;99.90
31387;DHT22;18017;50.124;8.688;2022-09-13T09:30:13;19.50;99.90
31387;DHT22;18017;50.124;8.688;2022-09-13T09:32:56;19.30;99.90
31387;DHT22;18017;50.124;8.688;2022-09-13T09:36:01;19.30;99.90
31387;DHT22;18017;50.124;8.688;2022-09-13T09:38:39;19.30;99.90
31387;DHT22;18017;50.124;8.688;2022-09-13T09:43:58;19.30;99.90
31387;DHT22;18017;50.124;8.688;2022-09-13T09:46:29;19.20;99.90
31387;DHT22;18017;50.124;8.688;2022-09-13T09:49:04;19.30;99.90
31387;DHT22;18017;50.124;8.688;2022-09-13T09:51:52;19.20;99.90
31387;DHT22;18017;50.124;8.688;2022-09-13T09:54:18;19.10;99.90
31387;DHT22;18017;50.124;8.688;2022-09-13T09:56:54;19.00;99.90
31387;DHT22;18017;50.124;8.688;2022-09-13T09:59:31;19.10;99.90
31387;DHT22;18017;50.124;8.688;2022-09-13T10:02:10;19.20;99.90
31387;DHT22;18017;50.124;8.688;2022-09-13T10:04:38;19.40;99.90
31387;DHT22;18017;50.124;8.688;2022-09-13T10:07:31;19.40;99.90
31387;DHT22;18017;50.124;8.688;2022-09-13T10:09:59;19.20;99.90
31387;DHT22;18017;50.124;8.688;2022-09-13T10:12:30;19.00;99.90
31387;DHT22;18017;50.124;8.688;2022-09-13T10:15:16;18.90;99.90
31387;DHT22;18017;50.124;8.688;2022-09-13T10:17:42;18.90;99.90
31387;DHT22;18017;50.124;8.688;2022-09-13T10:22:39;19.40;99.90
31387;DHT22;18017;50.124;8.688;2022-09-13T10:25:24;19.80;99.90
31387;DHT22;18017;50.124;8.688;2022-09-13T10:27:55;20.10;99.90
31387;DHT22;18017;50.124;8.688;2022-09-13T10:30:37;20.10;99.90
31387;DHT22;18017;50.124;8.688;2022-09-13T10:33:03;20.20;99.90
31387;DHT22;18017;50.124;8.688;2022-09-13T10:35:30;20.30;99.90
31387;DHT22;18017;50.124;8.688;2022-09-13T10:37:56;20.30;99.90
31387;DHT22;18017;50.124;8.688;2022-09-13T10:40:31;20.20;99.90
31387;DHT22;18017;50.124;8.688;2022-09-13T10:43:05;20.20;99.90
31387;DHT22;18017;50.124;8.688;2022-09-13T10:45:39;20.50;99.90
31387;DHT22;18017;50.124;8.688;2022-09-13T10:48:11;20.70;99.90
31387;DHT22;18017;50.124;8.688;2022-09-13T10:50:37;21.10;99.90
31387;DHT22;18017;50.124;8.688;2022-09-13T10:53:03;22.10;99.90
31387;DHT22;18017;50.124;8.688;2022-09-13T10:55:32;22.50;99.90
31387;DHT22;18017;50.124;8.688;2022-09-13T11:09:13;22.60;99.90
31387;DHT22;18017;50.124;8.688;2022-09-13T11:14:55;23.20;99.90
31387;DHT22;18017;50.124;8.688;2022-09-13T11:26:07;22.60;99.90
31387;DHT22;18017;50.124;8.688;2022-09-13T11:39:37;22.50;99.90
31387;DHT22;18017;50.124;8.688;2022-09-13T11:45:26;22.60;99.90
31387;DHT22;18017;50.124;8.688;2022-09-13T11:56:10;22.10;99.90
31387;DHT22;18017;50.124;8.688;2022-09-13T11:58:51;21.80;99.90
31387;DHT22;18017;50.124;8.688;2022-09-13T12:01:33;21.70;99.90
31387;DHT22;18017;50.124;8.688;2022-09-13T12:04:21;21.70;99.90
31387;DHT22;18017;50.124;8.688;2022-09-13T12:06:53;22.10;99.90
31387;DHT22;18017;50.124;8.688;2022-09-13T12:09:24;22.30;99.90
31387;DHT22;18017;50.124;8.688;2022-09-13T12:11:57;23.00;99.90
31387;DHT22;18017;50.124;8.688;2022-09-13T12:14:24;23.60;99.90
31387;DHT22;18017;50.124;8.688;2022-09-13T12:16:58;23.60;99.90
31387;DHT22;18017;50.124;8.688;2022-09-13T12:19:39;23.30;99.90
31387;DHT22;18017;50.124;8.688;2022-09-13T12:22:07;23.20;99.90
31387;DHT22;18017;50.124;8.688;2022-09-13T12:24:44;23.60;99.90
31387;DHT22;18017;50.124;8.688;2022-09-13T12:29:54;24.90;99.90
31387;DHT22;18017;50.124;8.688;2022-09-13T12:32:20;25.40;99.90
31387;DHT22;18017;50.124;8.688;2022-09-13T12:35:09;26.00;99.90
31387;DHT22;18017;50.124;8.688;2022-09-13T12:40:29;27.40;99.90
31387;DHT22;18017;50.124;8.688;2022-09-13T12:43:10;27.50;99.90
31387;DHT22;18017;50.124;8.688;2022-09-13T12:49:09;26.90;99.90
31387;DHT22;18017;50.124;8.688;2022-09-13T12:51:54;26.40;99.90
31387;DHT22;18017;50.124;8.688;2022-09-13T13:00:20;24.70;99.90
31387;DHT22;18017;50.124;8.688;2022-09-13T13:05:29;24.40;99.90
31387;DHT22;18017;50.124;8.688;2022-09-13T13:08:03;24.30;99.90
31387;DHT22;18017;50.124;8.688;2022-09-13T13:10:36;24.00;99.90
31387;DHT22;18017;50.124;8.688;2022-09-13T13:13:27;23.80;99.90
31387;DHT22;18017;50.124;8.688;2022-09-13T13:15:59;23.90;99.90
31387;DHT22;18017;50.124;8.688;2022-09-13T13:18:45;24.00;99.90
31387;DHT22;18017;50.124;8.688;2022-09-13T13:26:54;25.30;99.90
31387;DHT22;18017;50.124;8.688;2022-09-13T13:29:25;25.40;99.90
31387;DHT22;18017;50.124;8.688;2022-09-13T13:34:50;24.80;99.90
31387;DHT22;18017;50.124;8.688;2022-09-13T13:40:10;24.30;99.90
31387;DHT22;18017;50.124;8.688;2022-09-13T13:42:37;24.20;99.90
31387;DHT22;18017;50.124;8.688;2022-09-13T13:45:14;24.20;99.90
31387;DHT22;18017;50.124;8.688;2022-09-13T13:47:52;24.20;99.90
31387;DHT22;18017;50.124;8.688;2022-09-13T13:50:19;24.00;99.90
31387;DHT22;18017;50.124;8.688;2022-09-13T13:52:57;23.80;99.90
31387;DHT22;18017;50.124;8.688;2022-09-13T13:55:44;23.80;99.90
31387;DHT22;18017;50.124;8.688;2022-09-13T13:58:24;23.80;99.90
31387;DHT22;18017;50.124;8.688;2022-09-13T14:00:52;23.90;99.90
31387;DHT22;18017;50.124;8.688;2022-09-13T14:03:41;24.20;99.90
31387;DHT22;18017;50.124;8.688;2022-09-13T14:06:27;24.30;99.90
31387;DHT22;18017;50.124;8.688;2022-09-13T14:11:58;24.20;99.90
31387;DHT22;18017;50.124;8.688;2022-09-13T14:20:11;24.00;99.90
31387;DHT22;18017;50.124;8.688;2022-09-13T14:22:38;23.70;99.90
31387;DHT22;18017;50.124;8.688;2022-09-13T14:27:48;23.40;99.90
31387;DHT22;18017;50.124;8.688;2022-09-13T14:30:30;23.30;99.90
31387;DHT22;18017;50.124;8.688;2022-09-13T14:32:57;23.10;99.90
31387;DHT22;18017;50.124;8.688;2022-09-13T14:35:36;22.80;99.90
31387;DHT22;18017;50.124;8.688;2022-09-13T14:40:35;22.40;99.90
31387;DHT22;18017;50.124;8.688;2022-09-13T14:43:13;22.30;99.90
31387;DHT22;18017;50.124;8.688;2022-09-13T14:45:40;22.10;99.90
31387;DHT22;18017;50.124;8.688;2022-09-13T14:48:30;22.00;99.90
31387;DHT22;18017;50.124;8.688;2022-09-13T14:51:01;21.90;99.90
31387;DHT22;18017;50.124;8.688;2022-09-13T14:53:30;21.90;99.90
31387;DHT22;18017;50.124;8.688;2022-09-13T14:56:05;21.90;99.90
31387;DHT22;18017;50.124;8.688;2022-09-13T14:58:44;21.90;99.90
31387;DHT22;18017;50.124;8.688;2022-09-13T15:01:13;21.90;99.90
31387;DHT22;18017;50.124;8.688;2022-09-13T15:03:42;21.90;99.90
31387;DHT22;18017;50.124;8.688;2022-09-13T15:06:23;22.00;99.90
31387;DHT22;18017;50.124;8.688;2022-09-13T15:08:50;22.00;99.90
31387;DHT22;18017;50.124;8.688;2022-09-13T15:11:27;22.10;99.90
31387;DHT22;18017;50.124;8.688;2022-09-13T15:14:33;22.10;99.90
31387;DHT22;18017;50.124;8.688;2022-09-13T15:17:06;21.90;99.90
31387;DHT22;18017;50.124;8.688;2022-09-13T15:22:21;21.80;99.90
31387;DHT22;18017;50.124;8.688;2022-09-13T15:24:53;21.70;99.90
31387;DHT22;18017;50.124;8.688;2022-09-13T15:29:59;21.50;99.90
31387;DHT22;18017;50.124;8.688;2022-09-13T15:32:42;21.40;99.90
31387;DHT22;18017;50.124;8.688;2022-09-13T15:35:28;21.30;99.90
31387;DHT22;18017;50.124;8.688;2022-09-13T15:37:59;21.40;99.90
31387;DHT22;18017;50.124;8.688;2022-09-13T15:40:28;21.40;99.90
31387;DHT22;18017;50.124;8.688;2022-09-13T15:42:54;21.40;99.90
31387;DHT22;18017;50.124;8.688;2022-09-13T15:45:20;21.40;99.90
31387;DHT22;18017;50.124;8.688;2022-09-13T15:47:48;21.40;99.90
31387;DHT22;18017;50.124;8.688;2022-09-13T15:50:23;21.30;99.90
31387;DHT22;18017;50.124;8.688;2022-09-13T15:52:51;21.30;99.90
31387;DHT22;18017;50.124;8.688;2022-09-13T15:55:17;21.20;99.90
31387;DHT22;18017;50.124;8.688;2022-09-13T15:57:44;21.20;99.90
31387;DHT22;18017;50.124;8.688;2022-09-13T16:00:18;21.30;99.90
31387;DHT22;18017;50.124;8.688;2022-09-13T16:02:44;21.20;99.90
31387;DHT22;18017;50.124;8.688;2022-09-13T16:05:10;21.20;99.90
31387;DHT22;18017;50.124;8.688;2022-09-13T16:07:37;21.20;99.90
31387;DHT22;18017;50.124;8.688;2022-09-13T16:10:14;21.20;99.90
31387;DHT22;18017;50.124;8.688;2022-09-13T16:12:40;21.10;99.90
31387;DHT22;18017;50.124;8.688;2022-09-13T16:15:07;21.00;99.90
31387;DHT22;18017;50.124;8.688;2022-09-13T16:17:33;20.90;99.90
31387;DHT22;18017;50.124;8.688;2022-09-13T16:19:58;20.90;99.90
31387;DHT22;18017;50.124;8.688;2022-09-13T16:22:24;20.90;99.90
31387;DHT22;18017;50.124;8.688;2022-09-13T16:24:49;20.90;99.90
31387;DHT22;18017;50.124;8.688;2022-09-13T16:27:17;20.90;99.90
31387;DHT22;18017;50.124;8.688;2022-09-13T16:29:43;20.90;99.90
31387;DHT22;18017;50.124;8.688;2022-09-13T16:32:09;21.00;99.90
31387;DHT22;18017;50.124;8.688;2022-09-13T16:34:34;20.90;99.90
31387;DHT22;18017;50.124;8.688;2022-09-13T16:37:00;20.90;99.90
31387;DHT22;18017;50.124;8.688;2022-09-13T16:39:26;20.90;99.90
31387;DHT22;18017;50.124;8.688;2022-09-13T16:41:51;20.80;99.90
31387;DHT22;18017;50.124;8.688;2022-09-13T16:44:17;20.70;99.90
31387;DHT22;18017;50.124;8.688;2022-09-13T16:46:43;20.70;99.90
31387;DHT22;18017;50.124;8.688;2022-09-13T16:49:09;20.60;99.90
31387;DHT22;18017;50.124;8.688;2022-09-13T16:51:35;20.60;99.90
31387;DHT22;18017;50.124;8.688;2022-09-13T16:54:01;20.60;99.90
31387;DHT22;18017;50.124;8.688;2022-09-13T16:56:28;20.60;99.90
31387;DHT22;18017;50.124;8.688;2022-09-13T16:58:55;20.50;99.90
31387;DHT22;18017;50.124;8.688;2022-09-13T17:01:26;20.60;99.90
31387;DHT22;18017;50.124;8.688;2022-09-13T17:03:53;20.50;99.90
31387;DHT22;18017;50.124;8.688;2022-09-13T17:06:19;20.40;99.90
31387;DHT22;18017;50.124;8.688;2022-09-13T17:08:49;20.40;99.90
31387;DHT22;18017;50.124;8.688;2022-09-13T17:11:17;20.40;99.90
31387;DHT22;18017;50.124;8.688;2022-09-13T17:13:43;20.30;99.90
31387;DHT22;18017;50.124;8.688;2022-09-13T17:18:49;20.30;99.90
31387;DHT22;18017;50.124;8.688;2022-09-13T17:21:15;20.30;99.90
31387;DHT22;18017;50.124;8.688;2022-09-13T17:23:41;20.30;99.90
31387;DHT22;18017;50.124;8.688;2022-09-13T17:26:06;20.30;99.90
31387;DHT22;18017;50.124;8.688;2022-09-13T17:28:32;20.20;99.90
31387;DHT22;18017;50.124;8.688;2022-09-13T17:31:01;20.20;99.90
31387;DHT22;18017;50.124;8.688;2022-09-13T17:33:26;20.20;99.90
31387;DHT22;18017;50.124;8.688;2022-09-13T17:36:06;20.20;99.90
31387;DHT22;18017;50.124;8.688;2022-09-13T17:38:34;20.20;99.90
31387;DHT22;18017;50.124;8.688;2022-09-13T17:41:03;20.20;99.90
31387;DHT22;18017;50.124;8.688;2022-09-13T17:43:29;20.10;99.90
31387;DHT22;18017;50.124;8.688;2022-09-13T17:45:55;20.10;99.90
31387;DHT22;18017;50.124;8.688;2022-09-13T17:48:20;20.10;99.90
31387;DHT22;18017;50.124;8.688;2022-09-13T17:50:46;20.10;99.90
31387;DHT22;18017;50.124;8.688;2022-09-13T17:53:12;20.10;99.90
31387;DHT22;18017;50.124;8.688;2022-09-13T17:55:48;20.00;99.90
31387;DHT22;18017;50.124;8.688;2022-09-13T17:58:14;20.00;99.90
31387;DHT22;18017;50.124;8.688;2022-09-13T18:00:40;20.00;99.90
31387;DHT22;18017;50.124;8.688;2022-09-13T18:03:06;20.00;99.90
31387;DHT22;18017;50.124;8.688;2022-09-13T18:05:31;20.00;99.90
31387;DHT22;18017;50.124;8.688;2022-09-13T18:07:57;20.10;99.90
31387;DHT22;18017;50.124;8.688;2022-09-13T18:10:23;20.00;99.90
31387;DHT22;18017;50.124;8.688;2022-09-13T18:12:48;20.00;99.90
31387;DHT22;18017;50.124;8.688;2022-09-13T18:15:16;20.00;99.90
31387;DHT22;18017;50.124;8.688;2022-09-13T18:17:41;20.00;99.90
31387;DHT22;18017;50.124;8.688;2022-09-13T18:20:07;20.00;99.90
31387;DHT22;18017;50.124;8.688;2022-09-13T18:22:33;19.90;99.90
31387;DHT22;18017;50.124;8.688;2022-09-13T18:24:58;19.90;99.90
31387;DHT22;18017;50.124;8.688;2022-09-13T18:27:24;19.80;99.90
31387;DHT22;18017;50.124;8.688;2022-09-13T18:29:50;19.90;99.90
31387;DHT22;18017;50.124;8.688;2022-09-13T18:32:15;19.80;99.90
31387;DHT22;18017;50.124;8.688;2022-09-13T18:34:41;19.80;99.90
31387;DHT22;18017;50.124;8.688;2022-09-13T18:37:08;19.80;99.90